sensor_id;sensor_type;location;lat;lon;timestamp;pressure;altitude;pressure_sealevel;temperature;humidity
40994;BME280;26722;43.212;27.932;2023-08-17T00:01:50;54858.53;;;-146.72;56.43
40994;BME280;26722;43.212;27.932;2023-08-17T00:04:16;54854.31;;;-146.72;56.13
40994;BME280;26722;43.212;27.932;2023-08-17T00:06:42;54854.31;;;-146.72;55.77
40994;BME280;26722;43.212;27.932;2023-08-17T00:09:08;54856.41;;;-146.72;56.16
40994;BME280;26722;43.212;27.932;2023-08-17T00:11:34;54860.63;;;-146.72;56.06
40994;BME280;26722;43.212;27.932;2023-08-17T00:13:59;54871.19;;;-146.72;55.74
40994;BME280;26722;43.212;27.932;2023-08-17T00:16:25;54862.75;;;-146.72;55.74
40994;BME280;26722;43.212;27.932;2023-08-17T00:18:51;54869.09;;;-146.72;55.34
40994;BME280;26722;43.212;27.932;2023-08-17T00:21:16;54858.53;;;-146.72;55.16
40994;BME280;26722;43.212;27.932;2023-08-17T00:23:42;54862.75;;;-146.72;55.77
40994;BME280;26722;43.212;27.932;2023-08-17T00:26:08;54888.09;;;-146.72;55.47
40994;BME280;26722;43.212;27.932;2023-08-17T00:28:33;54875.41;;;-146.72;55.06
40994;BME280;26722;43.212;27.932;2023-08-17T00:31:02;54875.41;;;-146.72;55.01
40994;BME280;26722;43.212;27.932;2023-08-17T00:33:29;54875.41;;;-146.72;55.03
40994;BME280;26722;43.212;27.932;2023-08-17T00:35:54;54879.63;;;-146.72;55.22
40994;BME280;26722;43.212;27.932;2023-08-17T00:38:20;54862.75;;;-146.72;55.01
40994;BME280;26722;43.212;27.932;2023-08-17T00:40:46;54875.41;;;-146.72;55.04
40994;BME280;26722;43.212;27.932;2023-08-17T00:43:12;54881.75;;;-146.72;55.34
40994;BME280;26722;43.212;27.932;2023-08-17T00:45:37;54871.19;;;-146.72;55.22
40994;BME280;26722;43.212;27.932;2023-08-17T00:48:05;54864.88;;;-146.72;55.36
40994;BME280;26722;43.212;27.932;2023-08-17T00:50:34;54864.88;;;-146.72;55.26
40994;BME280;26722;43.212;27.932;2023-08-17T00:53:00;54866.97;;;-146.72;54.86
40994;BME280;26722;43.212;27.932;2023-08-17T00:55:26;54864.88;;;-146.72;54.40
40994;BME280;26722;43.212;27.932;2023-08-17T00:57:53;54866.97;;;-146.72;54.22
40994;BME280;26722;43.212;27.932;2023-08-17T01:00:19;54862.75;;;-146.72;53.26
40994;BME280;26722;43.212;27.932;2023-08-17T01:02:46;54871.19;;;-146.72;52.39
40994;BME280;26722;43.212;27.932;2023-08-17T01:05:12;54866.97;;;-146.72;51.77
40994;BME280;26722;43.212;27.932;2023-08-17T01:07:38;54875.41;;;-146.72;51.83
40994;BME280;26722;43.212;27.932;2023-08-17T01:10:05;54866.97;;;-146.72;51.68
40994;BME280;26722;43.212;27.932;2023-08-17T01:12:53;54860.63;;;-146.72;50.88
40994;BME280;26722;43.212;27.932;2023-08-17T01:15:37;54869.09;;;-146.72;51.00
40994;BME280;26722;43.212;27.932;2023-08-17T01:18:28;54847.97;;;-146.72;50.83
40994;BME280;26722;43.212;27.932;2023-08-17T01:20:56;54862.75;;;-146.72;50.42
40994;BME280;26722;43.212;27.932;2023-08-17T01:23:22;54866.97;;;-146.72;50.19
40994;BME280;26722;43.212;27.932;2023-08-17T01:25:48;54862.75;;;-146.72;50.49
40994;BME280;26722;43.212;27.932;2023-08-17T01:28:13;54864.88;;;-146.72;50.68
40994;BME280;26722;43.212;27.932;2023-08-17T01:30:57;54862.75;;;-146.72;51.40
40994;BME280;26722;43.212;27.932;2023-08-17T01:33:45;54862.75;;;-146.72;52.04
40994;BME280;26722;43.212;27.932;2023-08-17T01:36:33;54866.97;;;-146.72;52.17
40994;BME280;26722;43.212;27.932;2023-08-17T01:39:01;54894.41;;;-146.72;53.41
40994;BME280;26722;43.212;27.932;2023-08-17T01:41:27;54883.84;;;-146.72;54.54
40994;BME280;26722;43.212;27.932;2023-08-17T01:43:53;54879.63;;;-146.72;55.29
40994;BME280;26722;43.212;27.932;2023-08-17T01:46:20;54866.97;;;-146.72;55.39
40994;BME280;26722;43.212;27.932;2023-08-17T01:48:46;54871.19;;;-146.72;56.31
40994;BME280;26722;43.212;27.932;2023-08-17T01:51:18;54879.63;;;-146.72;57.18
40994;BME280;26722;43.212;27.932;2023-08-17T01:53:47;54888.09;;;-146.72;57.46
40994;BME280;26722;43.212;27.932;2023-08-17T01:56:13;54881.75;;;-146.72;58.48
40994;BME280;26722;43.212;27.932;2023-08-17T01:58:39;54875.41;;;-146.72;58.79
40994;BME280;26722;43.212;27.932;2023-08-17T02:01:04;54879.63;;;-146.72;58.59
40994;BME280;26722;43.212;27.932;2023-08-17T02:03:30;54892.31;;;-146.72;58.38
40994;BME280;26722;43.212;27.932;2023-08-17T02:05:56;54890.19;;;-146.72;58.05
40994;BME280;26722;43.212;27.932;2023-08-17T02:08:22;54877.53;;;-146.72;58.37
40994;BME280;26722;43.212;27.932;2023-08-17T02:10:47;54888.09;;;-146.72;57.97
40994;BME280;26722;43.212;27.932;2023-08-17T02:13:14;54883.84;;;-146.72;57.86
40994;BME280;26722;43.212;27.932;2023-08-17T02:15:39;54885.97;;;-146.72;58.14
40994;BME280;26722;43.212;27.932;2023-08-17T02:18:05;54871.19;;;-146.72;56.62
40994;BME280;26722;43.212;27.932;2023-08-17T02:20:30;54860.63;;;-146.72;57.54
40994;BME280;26722;43.212;27.932;2023-08-17T02:22:56;54883.84;;;-146.72;57.44
40994;BME280;26722;43.212;27.932;2023-08-17T02:25:21;54871.19;;;-146.72;57.33
40994;BME280;26722;43.212;27.932;2023-08-17T02:27:47;54875.41;;;-146.72;57.97
40994;BME280;26722;43.212;27.932;2023-08-17T02:30:13;54883.84;;;-146.72;58.43
40994;BME280;26722;43.212;27.932;2023-08-17T02:32:38;54883.84;;;-146.72;58.53
40994;BME280;26722;43.212;27.932;2023-08-17T02:35:04;54879.63;;;-146.72;58.86
40994;BME280;26722;43.212;27.932;2023-08-17T02:37:30;54881.75;;;-146.72;58.86
40994;BME280;26722;43.212;27.932;2023-08-17T02:39:55;54894.41;;;-146.72;58.31
40994;BME280;26722;43.212;27.932;2023-08-17T02:42:21;54866.97;;;-146.72;58.58
40994;BME280;26722;43.212;27.932;2023-08-17T02:44:46;54877.53;;;-146.72;58.53
40994;BME280;26722;43.212;27.932;2023-08-17T02:47:12;54885.97;;;-146.72;58.48
40994;BME280;26722;43.212;27.932;2023-08-17T02:49:37;54883.84;;;-146.72;58.29
40994;BME280;26722;43.212;27.932;2023-08-17T02:52:03;54875.41;;;-146.72;58.91
40994;BME280;26722;43.212;27.932;2023-08-17T02:54:28;54879.63;;;-146.72;59.08
40994;BME280;26722;43.212;27.932;2023-08-17T02:56:54;54875.41;;;-146.72;58.40
40994;BME280;26722;43.212;27.932;2023-08-17T02:59:19;54875.41;;;-146.72;59.87
40994;BME280;26722;43.212;27.932;2023-08-17T03:01:45;54885.97;;;-146.72;59.86
40994;BME280;26722;43.212;27.932;2023-08-17T03:04:11;54890.19;;;-146.72;60.54
40994;BME280;26722;43.212;27.932;2023-08-17T03:06:36;54875.41;;;-146.72;60.80
40994;BME280;26722;43.212;27.932;2023-08-17T03:09:02;54883.84;;;-146.72;61.84
40994;BME280;26722;43.212;27.932;2023-08-17T03:11:27;54883.84;;;-146.72;62.14
40994;BME280;26722;43.212;27.932;2023-08-17T03:13:53;54890.19;;;-146.72;61.90
40994;BME280;26722;43.212;27.932;2023-08-17T03:16:25;54892.31;;;-146.72;61.90
40994;BME280;26722;43.212;27.932;2023-08-17T03:18:51;54883.84;;;-146.72;62.53
40994;BME280;26722;43.212;27.932;2023-08-17T03:21:16;54894.41;;;-146.72;62.09
40994;BME280;26722;43.212;27.932;2023-08-17T03:23:44;54881.75;;;-146.72;59.19
40994;BME280;26722;43.212;27.932;2023-08-17T03:26:09;54879.63;;;-146.72;60.33
40994;BME280;26722;43.212;27.932;2023-08-17T03:28:35;54883.84;;;-146.72;61.27
40994;BME280;26722;43.212;27.932;2023-08-17T03:31:02;54883.84;;;-146.72;61.14
40994;BME280;26722;43.212;27.932;2023-08-17T03:33:28;54877.53;;;-146.72;61.11
40994;BME280;26722;43.212;27.932;2023-08-17T03:35:53;54875.41;;;-146.72;61.08
40994;BME280;26722;43.212;27.932;2023-08-17T03:38:19;54883.84;;;-146.72;59.45
40994;BME280;26722;43.212;27.932;2023-08-17T03:40:46;54888.09;;;-146.72;59.19
40994;BME280;26722;43.212;27.932;2023-08-17T03:43:11;54871.19;;;-146.72;58.16
40994;BME280;26722;43.212;27.932;2023-08-17T03:45:37;54875.41;;;-146.72;57.38
40994;BME280;26722;43.212;27.932;2023-08-17T03:48:03;54862.75;;;-146.72;57.68
40994;BME280;26722;43.212;27.932;2023-08-17T03:50:29;54858.53;;;-146.72;58.99
40994;BME280;26722;43.212;27.932;2023-08-17T03:52:55;54869.09;;;-146.72;58.98
40994;BME280;26722;43.212;27.932;2023-08-17T03:55:20;54875.41;;;-146.72;58.27
40994;BME280;26722;43.212;27.932;2023-08-17T03:57:45;54879.63;;;-146.72;58.12
40994;BME280;26722;43.212;27.932;2023-08-17T04:00:11;54875.41;;;-146.72;57.59
40994;BME280;26722;43.212;27.932;2023-08-17T04:02:37;54862.75;;;-146.72;57.13
40994;BME280;26722;43.212;27.932;2023-08-17T04:05:03;54866.97;;;-146.72;56.75
40994;BME280;26722;43.212;27.932;2023-08-17T04:07:28;54852.19;;;-146.72;56.80
40994;BME280;26722;43.212;27.932;2023-08-17T04:09:54;54852.19;;;-146.72;57.13
40994;BME280;26722;43.212;27.932;2023-08-17T04:12:19;54856.41;;;-146.72;56.99
40994;BME280;26722;43.212;27.932;2023-08-17T04:14:45;54852.19;;;-146.72;56.69
40994;BME280;26722;43.212;27.932;2023-08-17T04:17:11;54847.97;;;-146.72;56.92
40994;BME280;26722;43.212;27.932;2023-08-17T04:19:37;54850.09;;;-146.72;56.08
40994;BME280;26722;43.212;27.932;2023-08-17T04:22:02;54850.09;;;-146.72;55.67
40994;BME280;26722;43.212;27.932;2023-08-17T04:24:28;54854.31;;;-146.72;55.81
40994;BME280;26722;43.212;27.932;2023-08-17T04:26:53;54850.09;;;-146.72;56.11
40994;BME280;26722;43.212;27.932;2023-08-17T04:29:19;54858.53;;;-146.72;56.69
40994;BME280;26722;43.212;27.932;2023-08-17T04:31:44;54860.63;;;-146.72;56.69
40994;BME280;26722;43.212;27.932;2023-08-17T04:34:11;54858.53;;;-146.72;57.01
40994;BME280;26722;43.212;27.932;2023-08-17T04:36:36;54841.63;;;-146.72;56.79
40994;BME280;26722;43.212;27.932;2023-08-17T04:39:02;54850.09;;;-146.72;55.69
40994;BME280;26722;43.212;27.932;2023-08-17T04:41:30;54845.88;;;-146.72;55.54
40994;BME280;26722;43.212;27.932;2023-08-17T04:43:55;54850.09;;;-146.72;55.17
40994;BME280;26722;43.212;27.932;2023-08-17T04:46:21;54845.88;;;-146.72;54.33
40994;BME280;26722;43.212;27.932;2023-08-17T04:48:46;54854.31;;;-146.72;54.76
40994;BME280;26722;43.212;27.932;2023-08-17T04:51:12;54852.19;;;-146.72;55.19
40994;BME280;26722;43.212;27.932;2023-08-17T04:53:38;54843.75;;;-146.72;55.29
40994;BME280;26722;43.212;27.932;2023-08-17T04:56:04;54860.63;;;-146.72;55.29
40994;BME280;26722;43.212;27.932;2023-08-17T04:58:29;54841.63;;;-146.72;54.30
40994;BME280;26722;43.212;27.932;2023-08-17T05:00:55;54833.19;;;-146.72;53.59
40994;BME280;26722;43.212;27.932;2023-08-17T05:03:20;54831.09;;;-146.72;53.35
40994;BME280;26722;43.212;27.932;2023-08-17T05:05:46;54833.19;;;-146.72;53.75
40994;BME280;26722;43.212;27.932;2023-08-17T05:08:11;54833.19;;;-146.72;53.87
40994;BME280;26722;43.212;27.932;2023-08-17T05:10:37;54837.41;;;-146.72;54.60
40994;BME280;26722;43.212;27.932;2023-08-17T05:13:03;54845.88;;;-146.72;55.55
40994;BME280;26722;43.212;27.932;2023-08-17T05:15:28;54833.19;;;-146.72;56.25
40994;BME280;26722;43.212;27.932;2023-08-17T05:17:54;54850.09;;;-146.72;56.38
40994;BME280;26722;43.212;27.932;2023-08-17T05:20:19;54845.88;;;-146.72;56.63
40994;BME280;26722;43.212;27.932;2023-08-17T05:22:46;54839.53;;;-146.72;56.46
40994;BME280;26722;43.212;27.932;2023-08-17T05:25:12;54826.88;;;-146.72;56.62
40994;BME280;26722;43.212;27.932;2023-08-17T05:27:37;54837.41;;;-146.72;56.26
40994;BME280;26722;43.212;27.932;2023-08-17T05:30:03;54850.09;;;-146.72;56.13
40994;BME280;26722;43.212;27.932;2023-08-17T05:32:29;54837.41;;;-146.72;55.70
40994;BME280;26722;43.212;27.932;2023-08-17T05:34:54;54837.41;;;-146.72;55.94
40994;BME280;26722;43.212;27.932;2023-08-17T05:37:20;54837.41;;;-146.72;55.64
40994;BME280;26722;43.212;27.932;2023-08-17T05:39:45;54839.53;;;-146.72;55.59
40994;BME280;26722;43.212;27.932;2023-08-17T05:42:11;54847.97;;;-146.72;55.54
40994;BME280;26722;43.212;27.932;2023-08-17T05:44:36;54852.19;;;-146.72;56.07
40994;BME280;26722;43.212;27.932;2023-08-17T05:47:02;54841.63;;;-146.72;56.34
40994;BME280;26722;43.212;27.932;2023-08-17T05:49:27;54841.63;;;-146.72;55.64
40994;BME280;26722;43.212;27.932;2023-08-17T05:51:53;54833.19;;;-146.72;55.38
40994;BME280;26722;43.212;27.932;2023-08-17T05:54:18;54828.97;;;-146.72;55.32
40994;BME280;26722;43.212;27.932;2023-08-17T05:56:44;54833.19;;;-146.72;55.04
40994;BME280;26722;43.212;27.932;2023-08-17T05:59:12;54837.41;;;-146.72;54.95
40994;BME280;26722;43.212;27.932;2023-08-17T06:01:38;54837.41;;;-146.72;54.27
40994;BME280;26722;43.212;27.932;2023-08-17T06:04:04;54858.53;;;-146.72;54.81
40994;BME280;26722;43.212;27.932;2023-08-17T06:06:30;54831.09;;;-146.72;54.47
40994;BME280;26722;43.212;27.932;2023-08-17T06:08:55;54837.41;;;-146.72;54.86
40994;BME280;26722;43.212;27.932;2023-08-17T06:11:21;54839.53;;;-146.72;54.57
40994;BME280;26722;43.212;27.932;2023-08-17T06:13:46;54841.63;;;-146.72;55.19
40994;BME280;26722;43.212;27.932;2023-08-17T06:16:12;54837.41;;;-146.72;55.41
40994;BME280;26722;43.212;27.932;2023-08-17T06:18:39;54833.19;;;-146.72;55.94
40994;BME280;26722;43.212;27.932;2023-08-17T06:21:04;54845.88;;;-146.72;56.51
40994;BME280;26722;43.212;27.932;2023-08-17T06:23:30;54828.97;;;-146.72;56.36
40994;BME280;26722;43.212;27.932;2023-08-17T06:25:58;54826.88;;;-146.72;55.15
40994;BME280;26722;43.212;27.932;2023-08-17T06:28:25;54828.97;;;-146.72;54.88
40994;BME280;26722;43.212;27.932;2023-08-17T06:30:56;54843.75;;;-146.72;55.36
40994;BME280;26722;43.212;27.932;2023-08-17T06:33:22;54831.09;;;-146.72;55.36
40994;BME280;26722;43.212;27.932;2023-08-17T06:35:51;54812.09;;;-146.72;56.01
40994;BME280;26722;43.212;27.932;2023-08-17T06:38:19;54826.88;;;-146.72;55.85
40994;BME280;26722;43.212;27.932;2023-08-17T06:40:45;54822.63;;;-146.72;55.04
40994;BME280;26722;43.212;27.932;2023-08-17T06:43:11;54833.19;;;-146.72;54.64
40994;BME280;26722;43.212;27.932;2023-08-17T06:45:37;54833.19;;;-146.72;55.75
40994;BME280;26722;43.212;27.932;2023-08-17T06:48:03;54833.19;;;-146.72;55.64
40994;BME280;26722;43.212;27.932;2023-08-17T06:50:28;54824.75;;;-146.72;55.20
40994;BME280;26722;43.212;27.932;2023-08-17T06:52:54;54831.09;;;-146.72;54.84
40994;BME280;26722;43.212;27.932;2023-08-17T06:55:20;54828.97;;;-146.72;54.20
40994;BME280;26722;43.212;27.932;2023-08-17T06:57:46;54822.63;;;-146.72;54.01
40994;BME280;26722;43.212;27.932;2023-08-17T07:00:12;54822.63;;;-146.72;53.50
40994;BME280;26722;43.212;27.932;2023-08-17T07:02:38;54818.41;;;-146.72;53.28
40994;BME280;26722;43.212;27.932;2023-08-17T07:05:04;54820.53;;;-146.72;52.45
40994;BME280;26722;43.212;27.932;2023-08-17T07:07:30;54812.09;;;-146.72;52.13
40994;BME280;26722;43.212;27.932;2023-08-17T07:09:59;54805.75;;;-146.72;51.69
40994;BME280;26722;43.212;27.932;2023-08-17T07:12:24;54816.31;;;-146.72;51.45
40994;BME280;26722;43.212;27.932;2023-08-17T07:14:50;54812.09;;;-146.72;51.24
40994;BME280;26722;43.212;27.932;2023-08-17T07:17:16;54803.63;;;-146.72;51.28
40994;BME280;26722;43.212;27.932;2023-08-17T07:19:42;54799.41;;;-146.72;51.13
40994;BME280;26722;43.212;27.932;2023-08-17T07:22:07;54814.19;;;-146.72;50.69
40994;BME280;26722;43.212;27.932;2023-08-17T07:24:33;54799.41;;;-146.72;50.70
40994;BME280;26722;43.212;27.932;2023-08-17T07:26:58;54807.88;;;-146.72;50.24
40994;BME280;26722;43.212;27.932;2023-08-17T07:29:24;54793.09;;;-146.72;50.09
40994;BME280;26722;43.212;27.932;2023-08-17T07:31:49;54799.41;;;-146.72;50.21
40994;BME280;26722;43.212;27.932;2023-08-17T07:34:15;54801.53;;;-146.72;50.56
40994;BME280;26722;43.212;27.932;2023-08-17T07:36:41;54786.75;;;-146.72;50.42
40994;BME280;26722;43.212;27.932;2023-08-17T07:39:06;54807.88;;;-146.72;50.57
40994;BME280;26722;43.212;27.932;2023-08-17T07:41:32;54788.88;;;-146.72;50.73
40994;BME280;26722;43.212;27.932;2023-08-17T07:43:57;54799.41;;;-146.72;50.47
40994;BME280;26722;43.212;27.932;2023-08-17T07:46:23;54786.75;;;-146.72;50.77
40994;BME280;26722;43.212;27.932;2023-08-17T07:48:48;54799.41;;;-146.72;49.90
40994;BME280;26722;43.212;27.932;2023-08-17T07:51:14;54795.19;;;-146.72;50.11
40994;BME280;26722;43.212;27.932;2023-08-17T07:53:39;54795.19;;;-146.72;49.78
40994;BME280;26722;43.212;27.932;2023-08-17T07:56:05;54799.41;;;-146.72;49.68
40994;BME280;26722;43.212;27.932;2023-08-17T07:58:30;54795.19;;;-146.72;49.99
40994;BME280;26722;43.212;27.932;2023-08-17T08:00:56;54803.63;;;-146.72;49.45
40994;BME280;26722;43.212;27.932;2023-08-17T08:03:21;54812.09;;;-146.72;49.33
40994;BME280;26722;43.212;27.932;2023-08-17T08:05:47;54793.09;;;-146.72;49.84
40994;BME280;26722;43.212;27.932;2023-08-17T08:08:12;54795.19;;;-146.72;48.90
40994;BME280;26722;43.212;27.932;2023-08-17T08:10:40;54805.75;;;-146.72;50.84
40994;BME280;26722;43.212;27.932;2023-08-17T08:13:05;54795.19;;;-146.72;50.59
40994;BME280;26722;43.212;27.932;2023-08-17T08:15:35;54807.88;;;-146.72;50.47
40994;BME280;26722;43.212;27.932;2023-08-17T08:18:00;54812.09;;;-146.72;49.79
40994;BME280;26722;43.212;27.932;2023-08-17T08:20:25;54803.63;;;-146.72;48.68
40994;BME280;26722;43.212;27.932;2023-08-17T08:22:51;54822.63;;;-146.72;48.87
40994;BME280;26722;43.212;27.932;2023-08-17T08:25:16;54807.88;;;-146.72;48.29
40994;BME280;26722;43.212;27.932;2023-08-17T08:27:42;54816.31;;;-146.72;47.77
40994;BME280;26722;43.212;27.932;2023-08-17T08:30:07;54807.88;;;-146.72;47.16
40994;BME280;26722;43.212;27.932;2023-08-17T08:32:33;54803.63;;;-146.72;47.96
40994;BME280;26722;43.212;27.932;2023-08-17T08:34:58;54812.09;;;-146.72;47.24
40994;BME280;26722;43.212;27.932;2023-08-17T08:37:24;54816.31;;;-146.72;46.64
40994;BME280;26722;43.212;27.932;2023-08-17T08:39:51;54799.41;;;-146.72;46.77
40994;BME280;26722;43.212;27.932;2023-08-17T08:42:21;54807.88;;;-146.72;46.92
40994;BME280;26722;43.212;27.932;2023-08-17T08:44:47;54805.75;;;-146.72;46.85
40994;BME280;26722;43.212;27.932;2023-08-17T08:47:13;54799.41;;;-146.72;46.88
40994;BME280;26722;43.212;27.932;2023-08-17T08:49:39;54805.75;;;-146.72;46.05
40994;BME280;26722;43.212;27.932;2023-08-17T08:52:12;54799.41;;;-146.72;45.04
40994;BME280;26722;43.212;27.932;2023-08-17T08:54:44;54799.41;;;-146.72;45.32
40994;BME280;26722;43.212;27.932;2023-08-17T08:57:14;54799.41;;;-146.72;46.13
40994;BME280;26722;43.212;27.932;2023-08-17T08:59:41;54805.75;;;-146.72;44.51
40994;BME280;26722;43.212;27.932;2023-08-17T09:02:14;54812.09;;;-146.72;44.12
40994;BME280;26722;43.212;27.932;2023-08-17T09:04:42;54799.41;;;-146.72;44.40
40994;BME280;26722;43.212;27.932;2023-08-17T09:07:09;54803.63;;;-146.72;45.52
40994;BME280;26722;43.212;27.932;2023-08-17T09:09:36;54814.19;;;-146.72;43.27
40994;BME280;26722;43.212;27.932;2023-08-17T09:12:03;54807.88;;;-146.72;44.53
40994;BME280;26722;43.212;27.932;2023-08-17T09:14:29;54803.63;;;-146.72;42.79
40994;BME280;26722;43.212;27.932;2023-08-17T09:16:55;54809.97;;;-146.72;43.55
40994;BME280;26722;43.212;27.932;2023-08-17T09:19:24;54812.09;;;-146.72;44.85
40994;BME280;26722;43.212;27.932;2023-08-17T09:21:49;54803.63;;;-146.72;42.31
40994;BME280;26722;43.212;27.932;2023-08-17T09:24:15;54799.41;;;-146.72;43.72
40994;BME280;26722;43.212;27.932;2023-08-17T09:26:40;54807.88;;;-146.72;43.99
40994;BME280;26722;43.212;27.932;2023-08-17T09:29:20;54803.63;;;-146.72;43.81
40994;BME280;26722;43.212;27.932;2023-08-17T09:31:46;54803.63;;;-146.72;43.66
40994;BME280;26722;43.212;27.932;2023-08-17T09:34:14;54797.31;;;-146.72;43.52
40994;BME280;26722;43.212;27.932;2023-08-17T09:36:41;54799.41;;;-146.72;43.68
40994;BME280;26722;43.212;27.932;2023-08-17T09:39:06;54795.19;;;-146.72;42.27
40994;BME280;26722;43.212;27.932;2023-08-17T09:41:38;54790.97;;;-146.72;42.45
40994;BME280;26722;43.212;27.932;2023-08-17T09:44:06;54803.63;;;-146.72;42.89
40994;BME280;26722;43.212;27.932;2023-08-17T09:46:31;54790.97;;;-146.72;43.23
40994;BME280;26722;43.212;27.932;2023-08-17T09:48:56;54774.09;;;-146.72;42.66
40994;BME280;26722;43.212;27.932;2023-08-17T09:51:22;54790.97;;;-146.72;42.32
40994;BME280;26722;43.212;27.932;2023-08-17T09:53:52;54782.53;;;-146.72;40.73
40994;BME280;26722;43.212;27.932;2023-08-17T09:56:23;54778.31;;;-146.72;40.11
40994;BME280;26722;43.212;27.932;2023-08-17T09:58:50;54778.31;;;-146.72;40.58
40994;BME280;26722;43.212;27.932;2023-08-17T10:01:16;54795.19;;;-146.72;39.38
40994;BME280;26722;43.212;27.932;2023-08-17T10:03:43;54790.97;;;-146.72;39.50
40994;BME280;26722;43.212;27.932;2023-08-17T10:06:13;54782.53;;;-146.72;40.11
40994;BME280;26722;43.212;27.932;2023-08-17T10:08:43;54788.88;;;-146.72;41.77
40994;BME280;26722;43.212;27.932;2023-08-17T10:11:15;54784.63;;;-146.72;42.81
40994;BME280;26722;43.212;27.932;2023-08-17T10:16:26;54782.53;;;-146.72;42.70
40994;BME280;26722;43.212;27.932;2023-08-17T10:19:06;54786.75;;;-146.72;42.27
40994;BME280;26722;43.212;27.932;2023-08-17T10:21:46;54788.88;;;-146.72;43.41
40994;BME280;26722;43.212;27.932;2023-08-17T10:24:12;54780.41;;;-146.72;43.69
40994;BME280;26722;43.212;27.932;2023-08-17T10:26:39;54782.53;;;-146.72;42.13
40994;BME280;26722;43.212;27.932;2023-08-17T10:29:05;54778.31;;;-146.72;42.37
40994;BME280;26722;43.212;27.932;2023-08-17T10:31:34;54778.31;;;-146.72;43.47
40994;BME280;26722;43.212;27.932;2023-08-17T10:34:01;54790.97;;;-146.72;42.52
40994;BME280;26722;43.212;27.932;2023-08-17T10:36:28;54778.31;;;-146.72;44.88
40994;BME280;26722;43.212;27.932;2023-08-17T10:41:49;54795.19;;;-146.72;43.71
40994;BME280;26722;43.212;27.932;2023-08-17T10:44:15;54793.09;;;-146.72;43.97
40994;BME280;26722;43.212;27.932;2023-08-17T10:46:41;54793.09;;;-146.72;43.44
40994;BME280;26722;43.212;27.932;2023-08-17T10:49:24;54793.09;;;-146.72;43.80
40994;BME280;26722;43.212;27.932;2023-08-17T10:52:06;54793.09;;;-146.72;44.32
40994;BME280;26722;43.212;27.932;2023-08-17T10:54:36;54782.53;;;-146.72;43.71
40994;BME280;26722;43.212;27.932;2023-08-17T10:57:32;54801.53;;;-146.72;44.03
40994;BME280;26722;43.212;27.932;2023-08-17T11:00:23;54790.97;;;-146.72;45.05
40994;BME280;26722;43.212;27.932;2023-08-17T11:05:42;54790.97;;;-146.72;45.77
40994;BME280;26722;43.212;27.932;2023-08-17T11:08:20;54793.09;;;-146.72;47.06
40994;BME280;26722;43.212;27.932;2023-08-17T11:11:11;54782.53;;;-146.72;46.99
40994;BME280;26722;43.212;27.932;2023-08-17T11:13:39;54801.53;;;-146.72;45.94
40994;BME280;26722;43.212;27.932;2023-08-17T11:16:06;54790.97;;;-146.72;47.27
40994;BME280;26722;43.212;27.932;2023-08-17T11:18:33;54786.75;;;-146.72;46.81
40994;BME280;26722;43.212;27.932;2023-08-17T11:21:01;54790.97;;;-146.72;46.28
40994;BME280;26722;43.212;27.932;2023-08-17T11:23:29;54790.97;;;-146.72;46.64
40994;BME280;26722;43.212;27.932;2023-08-17T11:25:55;54788.88;;;-146.72;46.51
40994;BME280;26722;43.212;27.932;2023-08-17T11:28:21;54788.88;;;-146.72;46.31
40994;BME280;26722;43.212;27.932;2023-08-17T11:31:01;54782.53;;;-146.72;46.69
40994;BME280;26722;43.212;27.932;2023-08-17T11:33:28;54795.19;;;-146.72;46.88
40994;BME280;26722;43.212;27.932;2023-08-17T11:36:00;54790.97;;;-146.72;46.68
40994;BME280;26722;43.212;27.932;2023-08-17T11:38:30;54786.75;;;-146.72;46.58
40994;BME280;26722;43.212;27.932;2023-08-17T11:40:57;54786.75;;;-146.72;45.80
40994;BME280;26722;43.212;27.932;2023-08-17T11:43:23;54782.53;;;-146.72;45.96
40994;BME280;26722;43.212;27.932;2023-08-17T11:45:48;54803.63;;;-146.72;45.40
40994;BME280;26722;43.212;27.932;2023-08-17T11:48:14;54780.41;;;-146.72;45.33
40994;BME280;26722;43.212;27.932;2023-08-17T11:50:42;54778.31;;;-146.72;44.87
40994;BME280;26722;43.212;27.932;2023-08-17T11:53:08;54769.88;;;-146.72;45.43
40994;BME280;26722;43.212;27.932;2023-08-17T11:55:33;54782.53;;;-146.72;45.11
40994;BME280;26722;43.212;27.932;2023-08-17T11:57:59;54776.19;;;-146.72;44.58
40994;BME280;26722;43.212;27.932;2023-08-17T12:00:24;54774.09;;;-146.72;43.69
40994;BME280;26722;43.212;27.932;2023-08-17T12:02:51;54774.09;;;-146.72;44.83
40994;BME280;26722;43.212;27.932;2023-08-17T12:05:22;54782.53;;;-146.72;45.05
40994;BME280;26722;43.212;27.932;2023-08-17T12:07:50;54782.53;;;-146.72;44.65
40994;BME280;26722;43.212;27.932;2023-08-17T12:10:17;54763.53;;;-146.72;44.19
40994;BME280;26722;43.212;27.932;2023-08-17T12:12:48;54778.31;;;-146.72;44.69
40994;BME280;26722;43.212;27.932;2023-08-17T12:15:16;54765.63;;;-146.72;45.13
40994;BME280;26722;43.212;27.932;2023-08-17T12:17:49;54778.31;;;-146.72;44.32
40994;BME280;26722;43.212;27.932;2023-08-17T12:20:21;54782.53;;;-146.72;44.87
40994;BME280;26722;43.212;27.932;2023-08-17T12:22:47;54780.41;;;-146.72;43.85
40994;BME280;26722;43.212;27.932;2023-08-17T12:25:13;54778.31;;;-146.72;44.54
40994;BME280;26722;43.212;27.932;2023-08-17T12:27:40;54795.19;;;-146.72;44.28
40994;BME280;26722;43.212;27.932;2023-08-17T12:30:12;54778.31;;;-146.72;43.82
40994;BME280;26722;43.212;27.932;2023-08-17T12:32:38;54765.63;;;-146.72;43.41
40994;BME280;26722;43.212;27.932;2023-08-17T12:35:04;54778.31;;;-146.72;42.89
40994;BME280;26722;43.212;27.932;2023-08-17T12:37:30;54765.63;;;-146.72;43.31
40994;BME280;26722;43.212;27.932;2023-08-17T12:39:55;54765.63;;;-146.72;41.64